createdAt,value
2018-05-04T00:02:14.322Z,9.23
2018-05-04T00:04:43.033Z,9.57
2018-05-04T00:07:12.253Z,9.50
2018-05-04T00:09:40.986Z,9.85
2018-05-04T00:12:10.331Z,9.10
2018-05-04T00:14:39.047Z,9.15
2018-05-04T00:17:07.859Z,9.25
2018-05-04T00:19:36.577Z,8.88
2018-05-04T00:22:05.249Z,9.33
2018-05-04T00:24:33.701Z,10.13
2018-05-04T00:27:03.155Z,9.17
2018-05-04T00:29:31.956Z,9.03
2018-05-04T00:32:00.545Z,9.20
2018-05-04T00:34:28.973Z,8.23
2018-05-04T00:36:57.757Z,9.20
2018-05-04T00:39:26.339Z,8.00
2018-05-04T00:41:55.193Z,9.70
2018-05-04T00:44:23.612Z,9.37
2018-05-04T00:46:51.808Z,9.27
2018-05-04T00:49:20.519Z,9.10
2018-05-04T00:51:49.992Z,9.35
2018-05-04T00:54:23.705Z,8.93
2018-05-04T00:56:53.193Z,8.75
2018-05-04T00:59:22.393Z,9.60
2018-05-04T01:01:51.004Z,9.40
2018-05-04T01:04:19.652Z,8.70
2018-05-04T01:06:48.881Z,9.00
2018-05-04T01:09:17.379Z,9.27
2018-05-04T01:11:46.854Z,8.25
2018-05-04T01:14:16.069Z,8.50
2018-05-04T01:16:44.507Z,8.60
2018-05-04T01:19:12.905Z,9.07
2018-05-04T01:21:41.050Z,8.90
2018-05-04T01:24:09.777Z,9.03
2018-05-04T01:26:38.476Z,9.43
2018-05-04T01:29:07.980Z,9.25
2018-05-04T01:31:36.284Z,9.10
2018-05-04T01:34:04.989Z,8.77
2018-05-04T01:36:33.723Z,8.13
2018-05-04T01:39:01.941Z,9.60
2018-05-04T01:41:30.057Z,9.70
2018-05-04T01:43:58.543Z,9.47
2018-05-04T01:46:27.274Z,8.27
2018-05-04T01:48:55.662Z,8.13
2018-05-04T01:51:24.096Z,8.60
2018-05-04T01:53:52.560Z,9.80
2018-05-04T01:56:21.009Z,7.90
2018-05-04T01:58:49.624Z,8.27
2018-05-04T02:01:18.908Z,8.80
2018-05-04T02:03:48.124Z,8.17
2018-05-04T02:06:16.819Z,8.77
2018-05-04T02:08:46.317Z,7.87
2018-05-04T02:11:14.648Z,8.40
2018-05-04T02:13:43.400Z,9.02
2018-05-04T02:16:11.832Z,9.13
2018-05-04T02:18:41.084Z,9.70
2018-05-04T02:21:10.566Z,8.57
2018-05-04T02:23:40.245Z,8.93
2018-05-04T02:26:09.124Z,9.10
2018-05-04T02:28:38.320Z,9.53
2018-05-04T02:31:07.316Z,8.70
2018-05-04T02:33:35.912Z,8.93
2018-05-04T02:36:03.980Z,9.20
2018-05-04T02:38:32.369Z,9.60
2018-05-04T02:41:00.994Z,8.57
2018-05-04T02:43:29.976Z,9.60
2018-05-04T02:45:58.933Z,8.93
2018-05-04T02:48:28.429Z,9.27
2018-05-04T02:50:56.933Z,8.90
2018-05-04T02:53:26.439Z,10.17
2018-05-04T02:55:54.863Z,9.80
2018-05-04T02:58:23.714Z,9.02
2018-05-04T03:00:52.986Z,8.50
2018-05-04T03:03:21.732Z,10.13
2018-05-04T03:05:50.450Z,8.80
2018-05-04T03:08:18.942Z,8.20
2018-05-04T03:10:47.576Z,8.97
2018-05-04T03:13:16.328Z,9.32
2018-05-04T03:15:45.816Z,8.43
2018-05-04T03:18:14.191Z,9.73
2018-05-04T03:20:42.619Z,8.97
2018-05-04T03:23:11.094Z,9.60
2018-05-04T03:25:39.805Z,9.50
2018-05-04T03:28:08.315Z,9.30
2018-05-04T03:30:37.626Z,9.23
2018-05-04T03:33:07.018Z,9.30
2018-05-04T03:35:35.607Z,8.13
2018-05-04T03:38:04.033Z,9.47
2018-05-04T03:40:33.925Z,9.03
2018-05-04T03:43:02.372Z,9.30
2018-05-04T03:45:30.827Z,9.73
2018-05-04T03:47:59.320Z,8.60
2018-05-04T03:50:28.099Z,9.53
2018-05-04T03:52:56.842Z,10.07
2018-05-04T03:55:25.304Z,8.82
2018-05-04T03:58:04.756Z,8.23
2018-05-04T04:00:44.369Z,8.80
2018-05-04T04:03:24.131Z,8.30
2018-05-04T04:05:52.557Z,9.43
2018-05-04T04:08:21.018Z,9.93
2018-05-04T04:10:50.354Z,9.87
2018-05-04T04:13:19.053Z,9.63
2018-05-04T04:15:47.505Z,10.50
2018-05-04T04:18:15.951Z,9.20
2018-05-04T04:20:44.393Z,9.27
2018-05-04T04:23:12.853Z,10.97
2018-05-04T04:25:42.078Z,8.93
2018-05-04T04:28:10.527Z,10.47
2018-05-04T04:30:39.080Z,9.93
2018-05-04T04:33:07.773Z,10.13
2018-05-04T04:35:35.989Z,11.13
2018-05-04T04:38:05.495Z,10.68
2018-05-04T04:40:34.505Z,10.18
2018-05-04T04:43:03.167Z,10.87
2018-05-04T04:45:31.718Z,9.57
2018-05-04T04:48:00.415Z,10.53
2018-05-04T04:50:28.915Z,9.87
2018-05-04T04:52:57.669Z,9.95
2018-05-04T04:55:26.107Z,11.20
2018-05-04T04:57:54.817Z,9.50
2018-05-04T05:00:23.319Z,9.90
2018-05-04T05:02:52.033Z,9.90
2018-05-04T05:05:21.253Z,10.70
2018-05-04T05:07:50.584Z,9.77
2018-05-04T05:10:19.049Z,10.30
2018-05-04T05:12:47.788Z,10.73
2018-05-04T05:15:16.502Z,10.57
2018-05-04T05:17:45.968Z,9.13
2018-05-04T05:20:15.189Z,10.30
2018-05-04T05:22:43.625Z,10.53
2018-05-04T05:25:13.599Z,10.00
2018-05-04T05:27:41.856Z,10.23
2018-05-04T05:30:10.322Z,11.40
2018-05-04T05:32:38.493Z,9.10
2018-05-04T05:35:06.988Z,10.07
2018-05-04T05:37:35.645Z,9.73
2018-05-04T05:40:04.970Z,10.20
2018-05-04T05:42:33.598Z,10.17
2018-05-04T05:45:02.057Z,10.77
2018-05-04T05:47:31.544Z,10.30
2018-05-04T05:50:00.293Z,10.07
2018-05-04T05:52:28.808Z,9.90
2018-05-04T05:54:57.548Z,10.87
2018-05-04T05:57:26.322Z,10.17
2018-05-04T05:59:55.057Z,10.45
2018-05-04T06:02:24.272Z,11.23
2018-05-04T06:04:53.760Z,10.43
2018-05-04T06:07:22.979Z,12.30
2018-05-04T06:09:51.551Z,10.03
2018-05-04T06:12:19.817Z,10.63
2018-05-04T06:14:48.980Z,10.77
2018-05-04T06:17:17.516Z,9.77
2018-05-04T06:19:46.014Z,10.03
2018-05-04T06:22:14.559Z,10.10
2018-05-04T06:24:43.997Z,10.70
2018-05-04T06:27:12.581Z,10.50
2018-05-04T06:29:41.047Z,9.60
2018-05-04T06:32:10.068Z,10.00
2018-05-04T06:34:38.779Z,9.90
2018-05-04T06:37:07.512Z,10.67
2018-05-04T06:39:36.319Z,10.20
2018-05-04T06:42:04.809Z,9.70
2018-05-04T06:44:33.253Z,9.83
2018-05-04T06:47:02.741Z,10.50
2018-05-04T06:49:31.953Z,10.80
2018-05-04T06:52:01.421Z,10.15
2018-05-04T06:54:29.853Z,9.73
2018-05-04T06:56:58.301Z,10.23
2018-05-04T06:59:26.849Z,10.50
2018-05-04T07:01:55.445Z,11.17
2018-05-04T07:04:24.039Z,10.70
2018-05-04T07:06:52.524Z,10.30
2018-05-04T07:09:20.989Z,9.53
2018-05-04T07:11:49.652Z,10.20
2018-05-04T07:14:18.593Z,10.63
2018-05-04T07:16:47.035Z,10.57
2018-05-04T07:19:16.369Z,9.53
2018-05-04T07:21:44.829Z,10.10
2018-05-04T07:24:13.561Z,10.75
2018-05-04T07:26:42.053Z,10.65
2018-05-04T07:29:10.489Z,11.40
2018-05-04T07:31:39.249Z,10.75
2018-05-04T07:34:07.962Z,9.93
2018-05-04T07:36:36.780Z,9.90
2018-05-04T07:39:04.856Z,10.45
2018-05-04T07:41:32.964Z,10.50
2018-05-04T07:44:01.490Z,10.23
2018-05-04T07:46:30.094Z,10.80
2018-05-04T07:48:58.530Z,9.77
2018-05-04T07:51:27.266Z,9.93
2018-05-04T07:53:56.426Z,10.02
2018-05-04T07:56:37.242Z,10.57
2018-05-04T07:59:05.859Z,10.07
2018-05-04T08:01:34.301Z,9.10
2018-05-04T08:04:02.771Z,10.77
2018-05-04T08:06:31.533Z,10.93
2018-05-04T08:08:59.965Z,10.90
2018-05-04T08:11:28.681Z,9.93
2018-05-04T08:13:57.141Z,11.20
2018-05-04T08:16:26.677Z,10.60
2018-05-04T08:18:55.112Z,11.00
2018-05-04T08:21:23.633Z,10.90
2018-05-04T08:23:52.135Z,10.27
2018-05-04T08:26:20.581Z,10.47
2018-05-04T08:28:49.800Z,10.40
2018-05-04T08:31:19.284Z,12.27
2018-05-04T08:33:47.737Z,11.20
2018-05-04T08:36:16.176Z,12.87
2018-05-04T08:38:44.878Z,11.93
2018-05-04T08:41:14.314Z,12.00
2018-05-04T08:43:42.814Z,12.27
2018-05-04T08:46:11.430Z,12.00
2018-05-04T08:48:40.030Z,13.50
2018-05-04T08:51:08.785Z,11.25
2018-05-04T08:53:37.408Z,11.90
2018-05-04T08:56:06.144Z,13.65
2018-05-04T08:58:34.884Z,13.37
2018-05-04T09:01:03.338Z,13.37
2018-05-04T09:03:32.051Z,13.80
2018-05-04T09:06:01.534Z,14.07
2018-05-04T09:08:30.086Z,14.00
2018-05-04T09:10:58.540Z,13.20
2018-05-04T09:13:27.283Z,14.95
2018-05-04T09:15:55.744Z,14.20
2018-05-04T09:18:25.551Z,14.48
2018-05-04T09:20:53.989Z,15.17
2018-05-04T09:23:22.726Z,14.47
2018-05-04T09:25:51.179Z,15.33
2018-05-04T09:28:20.996Z,15.50
2018-05-04T09:30:49.502Z,15.80
2018-05-04T09:33:18.063Z,16.43
2018-05-04T09:35:47.566Z,16.35
2018-05-04T09:38:17.074Z,14.97
2018-05-04T09:40:45.508Z,15.27
2018-05-04T09:43:13.977Z,15.03
2018-05-04T09:45:42.827Z,16.67
2018-05-04T09:48:11.320Z,15.17
2018-05-04T09:50:39.899Z,15.67
2018-05-04T09:53:09.806Z,16.03
2018-05-04T09:55:38.264Z,16.10
2018-05-04T09:58:06.738Z,17.93
2018-05-04T10:00:35.554Z,17.77
2018-05-04T10:03:04.061Z,17.07
2018-05-04T10:05:32.509Z,17.73
2018-05-04T10:08:02.082Z,16.77
2018-05-04T10:10:30.465Z,18.97
2018-05-04T10:13:00.291Z,18.43
2018-05-04T10:15:28.751Z,19.27
2018-05-04T10:17:57.469Z,18.43
2018-05-04T10:20:27.077Z,19.05
2018-05-04T10:22:55.905Z,18.25
2018-05-04T10:25:24.622Z,17.80
2018-05-04T10:27:53.358Z,17.02
2018-05-04T10:30:21.917Z,18.27
2018-05-04T10:32:50.137Z,18.57
2018-05-04T10:35:19.677Z,17.83
2018-05-04T10:37:48.403Z,16.93
2018-05-04T10:40:16.873Z,18.50
2018-05-04T10:42:45.317Z,18.70
2018-05-04T10:45:13.894Z,17.03
2018-05-04T10:47:42.621Z,17.07
2018-05-04T10:50:11.075Z,17.03
2018-05-04T10:52:39.833Z,17.50
2018-05-04T10:55:08.634Z,16.00
2018-05-04T10:57:37.284Z,17.10
2018-05-04T11:00:05.053Z,18.30
2018-05-04T11:02:33.502Z,17.50
2018-05-04T11:05:02.277Z,18.53
2018-05-04T11:07:31.788Z,18.05
2018-05-04T11:10:00.532Z,17.48
2018-05-04T11:12:29.242Z,18.48
2018-05-04T11:14:57.680Z,16.97
2018-05-04T11:17:26.152Z,18.40
2018-05-04T11:19:54.599Z,16.93
2018-05-04T11:22:22.818Z,17.53
2018-05-04T11:24:51.560Z,17.98
2018-05-04T11:27:21.081Z,17.65
2018-05-04T11:29:49.792Z,16.87
2018-05-04T11:32:18.351Z,16.67
2018-05-04T11:34:46.786Z,17.20
2018-05-04T11:37:15.385Z,16.30
2018-05-04T11:39:43.837Z,15.83
2018-05-04T11:42:12.814Z,17.57
2018-05-04T11:44:42.037Z,17.77
2018-05-04T11:47:10.562Z,18.83
2018-05-04T11:49:39.394Z,17.67
2018-05-04T11:52:08.609Z,18.27
2018-05-04T11:54:37.214Z,16.70
2018-05-04T11:57:05.662Z,19.53
2018-05-04T11:59:34.381Z,17.65
2018-05-04T12:02:02.832Z,18.80
2018-05-04T12:04:32.316Z,18.48
2018-05-04T12:07:01.061Z,19.00
2018-05-04T12:09:29.575Z,19.10
2018-05-04T12:11:58.825Z,16.53
2018-05-04T12:14:27.281Z,19.07
2018-05-04T12:16:55.834Z,17.83
2018-05-04T12:19:24.340Z,18.77
2018-05-04T12:21:53.920Z,19.53
2018-05-04T12:24:22.413Z,18.73
2018-05-04T12:26:51.659Z,17.63
2018-05-04T12:29:20.399Z,18.52
2018-05-04T12:31:49.606Z,20.40
2018-05-04T12:34:18.065Z,19.30
2018-05-04T12:36:46.665Z,17.73
2018-05-04T12:39:15.416Z,18.30
2018-05-04T12:41:44.104Z,18.53
2018-05-04T12:44:12.646Z,19.33
2018-05-04T12:46:41.244Z,18.13
2018-05-04T12:49:09.816Z,17.83
2018-05-04T12:51:38.270Z,19.23
2018-05-04T12:54:06.703Z,19.17
2018-05-04T12:56:35.232Z,17.77
2018-05-04T12:59:04.224Z,17.37
2018-05-04T13:01:32.664Z,17.90
2018-05-04T13:04:01.914Z,15.90
2018-05-04T13:06:30.660Z,16.50
2018-05-04T13:08:59.396Z,16.75
2018-05-04T13:11:28.157Z,16.83
2018-05-04T13:13:56.373Z,16.70
2018-05-04T13:16:24.765Z,17.10
2018-05-04T13:18:53.492Z,16.73
2018-05-04T13:21:22.693Z,16.30
2018-05-04T13:23:51.139Z,15.75
2018-05-04T13:26:20.396Z,16.80
2018-05-04T13:28:49.093Z,17.50
2018-05-04T13:31:17.949Z,17.63
2018-05-04T13:33:46.385Z,17.40
2018-05-04T13:36:15.115Z,18.25
2018-05-04T13:38:44.076Z,16.55
2018-05-04T13:41:13.397Z,17.00
2018-05-04T13:43:42.389Z,17.23
2018-05-04T13:46:11.594Z,16.83
2018-05-04T13:48:40.828Z,16.30
2018-05-04T13:51:09.494Z,15.30
2018-05-04T13:53:38.385Z,16.57
2018-05-04T13:56:06.493Z,16.00
2018-05-04T13:58:34.709Z,16.67
2018-05-04T14:01:03.200Z,16.70
2018-05-04T14:03:32.353Z,16.20
2018-05-04T14:06:00.569Z,16.97
2018-05-04T14:08:29.273Z,15.67
2018-05-04T14:10:57.763Z,16.77
2018-05-04T14:13:26.488Z,17.20
2018-05-04T14:15:55.231Z,14.37
2018-05-04T14:18:23.968Z,16.10
2018-05-04T14:20:53.166Z,17.30
2018-05-04T14:23:22.388Z,16.37
2018-05-04T14:25:51.887Z,16.42
2018-05-04T14:28:20.116Z,16.43
2018-05-04T14:30:48.840Z,15.70
2018-05-04T14:33:18.050Z,14.57
2018-05-04T14:35:46.536Z,14.90
2018-05-04T14:38:16.020Z,13.53
2018-05-04T14:40:45.128Z,12.55
2018-05-04T14:43:13.571Z,13.17
2018-05-04T14:45:42.244Z,15.90
2018-05-04T14:48:10.679Z,14.83
2018-05-04T14:50:40.110Z,13.93
2018-05-04T14:53:08.315Z,14.70
2018-05-04T14:55:36.529Z,15.87
2018-05-04T14:58:04.983Z,13.17
2018-05-04T15:00:33.980Z,15.33
2018-05-04T15:03:02.638Z,15.00
2018-05-04T15:05:31.597Z,13.55
2018-05-04T15:08:00.071Z,14.47
2018-05-04T15:10:28.516Z,14.47
2018-05-04T15:12:56.959Z,14.23
2018-05-04T15:15:25.694Z,13.93
2018-05-04T15:17:54.251Z,13.87
2018-05-04T15:20:23.885Z,14.40
2018-05-04T15:22:52.526Z,14.70
2018-05-04T15:25:22.084Z,13.90
2018-05-04T15:27:50.669Z,13.00
2018-05-04T15:30:19.113Z,12.77
2018-05-04T15:32:48.337Z,12.98
2018-05-04T15:35:16.433Z,12.33
2018-05-04T15:37:44.885Z,13.07
2018-05-04T15:40:14.687Z,12.45
2018-05-04T15:42:43.491Z,10.70
2018-05-04T15:45:11.921Z,11.60
2018-05-04T15:47:40.657Z,12.37
2018-05-04T15:50:15.555Z,13.10
2018-05-04T15:52:44.784Z,12.40
2018-05-04T15:55:13.280Z,12.27
2018-05-04T15:57:42.052Z,12.70
2018-05-04T16:00:10.640Z,11.67
2018-05-04T16:02:39.404Z,12.27
2018-05-04T16:05:08.808Z,13.80
2018-05-04T16:07:37.428Z,13.10
2018-05-04T16:10:06.192Z,12.97
2018-05-04T16:12:34.627Z,14.60
2018-05-04T16:15:03.840Z,12.73
2018-05-04T16:17:32.623Z,13.40
2018-05-04T16:20:01.867Z,12.83
2018-05-04T16:22:30.627Z,11.87
2018-05-04T16:24:59.198Z,12.90
2018-05-04T16:27:27.926Z,11.02
2018-05-04T16:29:56.380Z,12.60
2018-05-04T16:32:25.885Z,12.50
2018-05-04T16:34:55.321Z,11.27
2018-05-04T16:37:23.795Z,12.00
2018-05-04T16:39:52.361Z,11.70
2018-05-04T16:42:20.793Z,12.13
2018-05-04T16:44:50.035Z,13.10
2018-05-04T16:47:22.001Z,11.60
2018-05-04T16:49:50.470Z,11.70
2018-05-04T16:52:19.225Z,12.07
2018-05-04T16:54:48.201Z,12.50
2018-05-04T16:57:17.407Z,12.17
2018-05-04T16:59:45.604Z,11.40
2018-05-04T17:02:15.055Z,11.45
2018-05-04T17:04:44.725Z,13.55
2018-05-04T17:07:12.949Z,12.50
2018-05-04T17:09:41.373Z,14.07
2018-05-04T17:12:09.673Z,14.40
2018-05-04T17:14:37.888Z,13.87
2018-05-04T17:17:06.417Z,13.27
2018-05-04T17:19:34.800Z,13.47
2018-05-04T17:22:03.114Z,13.60
2018-05-04T17:24:31.746Z,14.80
2018-05-04T17:27:00.540Z,15.20
2018-05-04T17:29:28.862Z,15.27
2018-05-04T17:31:57.622Z,14.23
2018-05-04T17:34:26.343Z,14.13
2018-05-04T17:36:54.545Z,13.33
2018-05-04T17:39:23.973Z,15.10
2018-05-04T17:41:52.596Z,16.03
2018-05-04T17:44:22.097Z,13.73
2018-05-04T17:46:50.582Z,14.80
2018-05-04T17:49:19.104Z,14.27
2018-05-04T17:51:47.832Z,13.87
2018-05-04T17:54:17.029Z,13.37
2018-05-04T17:56:45.861Z,15.80
2018-05-04T17:59:14.582Z,15.40
2018-05-04T18:01:43.331Z,14.73
2018-05-04T18:04:11.896Z,15.27
2018-05-04T18:06:40.455Z,15.57
2018-05-04T18:09:09.219Z,15.90
2018-05-04T18:11:37.888Z,15.50
2018-05-04T18:14:06.359Z,17.97
2018-05-04T18:16:35.084Z,15.80
2018-05-04T18:19:03.497Z,17.47
2018-05-04T18:21:32.034Z,15.83
2018-05-04T18:24:00.671Z,17.00
2018-05-04T18:26:29.278Z,17.00
2018-05-04T18:28:57.714Z,18.20
2018-05-04T18:31:26.165Z,16.73
2018-05-04T18:33:54.918Z,17.07
2018-05-04T18:36:23.369Z,18.80
2018-05-04T18:38:52.585Z,16.30
2018-05-04T18:41:21.185Z,16.33
2018-05-04T18:43:49.693Z,17.27
2018-05-04T18:46:18.411Z,17.25
2018-05-04T18:48:46.873Z,17.47
2018-05-04T18:51:15.581Z,18.07
2018-05-04T18:53:44.029Z,17.10
2018-05-04T18:56:12.798Z,16.53
2018-05-04T18:58:42.760Z,17.03
2018-05-04T19:01:13.143Z,19.30
2018-05-04T19:03:41.659Z,17.77
2018-05-04T19:06:10.188Z,17.93
2018-05-04T19:08:39.958Z,16.65
2018-05-04T19:11:09.738Z,19.70
2018-05-04T19:13:38.451Z,21.73
2018-05-04T19:16:07.017Z,22.23
2018-05-04T19:18:35.742Z,20.17
2018-05-04T19:21:04.965Z,20.30
2018-05-04T19:23:34.244Z,21.10
2018-05-04T19:26:02.736Z,19.37
2018-05-04T19:28:32.042Z,18.00
2018-05-04T19:31:00.485Z,19.73
2018-05-04T19:33:29.706Z,17.40
2018-05-04T19:35:58.548Z,17.95
2018-05-04T19:38:27.183Z,19.30
2018-05-04T19:40:55.917Z,17.23
2018-05-04T19:43:24.391Z,16.80
2018-05-04T19:45:53.001Z,17.67
2018-05-04T19:48:22.244Z,17.30
2018-05-04T19:50:50.961Z,19.17
2018-05-04T19:53:19.685Z,16.83
2018-05-04T19:55:48.899Z,17.70
2018-05-04T19:58:17.573Z,19.17
2018-05-04T20:00:46.301Z,17.33
2018-05-04T20:03:14.967Z,19.63
2018-05-04T20:05:43.665Z,19.73
2018-05-04T20:08:12.209Z,18.90
2018-05-04T20:10:41.417Z,19.10
2018-05-04T20:13:10.161Z,18.33
2018-05-04T20:15:38.601Z,19.13
2018-05-04T20:18:07.297Z,18.57
2018-05-04T20:20:35.744Z,18.97
2018-05-04T20:23:04.571Z,18.35
2018-05-04T20:25:33.630Z,18.83
2018-05-04T20:28:02.077Z,19.30
2018-05-04T20:30:30.804Z,19.17
2018-05-04T20:32:59.400Z,20.10
2018-05-04T20:35:29.392Z,20.20
2018-05-04T20:37:58.111Z,19.85
2018-05-04T20:40:26.620Z,20.45
2018-05-04T20:42:55.073Z,19.83
2018-05-04T20:45:24.440Z,19.65
2018-05-04T20:47:53.147Z,21.40
2018-05-04T20:50:22.636Z,20.10
2018-05-04T20:52:51.300Z,19.90
2018-05-04T20:55:20.528Z,21.57
2018-05-04T20:57:49.682Z,21.97
2018-05-04T21:00:18.142Z,21.60
2018-05-04T21:02:46.598Z,19.53
2018-05-04T21:05:15.028Z,20.53
2018-05-04T21:07:43.762Z,21.15
2018-05-04T21:10:12.358Z,20.50
2018-05-04T21:12:40.984Z,22.90
2018-05-04T21:15:10.214Z,22.03
2018-05-04T21:17:39.800Z,20.87
2018-05-04T21:20:08.484Z,22.50
2018-05-04T21:22:37.074Z,22.33
2018-05-04T21:25:05.961Z,20.98
2018-05-04T21:27:34.412Z,21.40
2018-05-04T21:30:02.951Z,22.97
2018-05-04T21:32:31.707Z,22.40
2018-05-04T21:35:00.156Z,23.20
2018-05-04T21:37:28.882Z,21.37
2018-05-04T21:39:57.350Z,21.10
2018-05-04T21:42:25.841Z,23.13
2018-05-04T21:44:54.285Z,22.63
2018-05-04T21:47:23.484Z,22.77
2018-05-04T21:49:52.269Z,23.70
2018-05-04T21:52:20.476Z,25.27
2018-05-04T21:54:49.029Z,24.53
2018-05-04T21:57:17.780Z,24.90
2018-05-04T21:59:46.219Z,25.70
2018-05-04T22:02:14.677Z,22.97
2018-05-04T22:04:43.883Z,23.77
2018-05-04T22:07:12.343Z,23.97
2018-05-04T22:09:41.045Z,24.37
2018-05-04T22:12:10.272Z,24.20
2018-05-04T22:14:38.836Z,23.80
2018-05-04T22:17:07.217Z,24.73
2018-05-04T22:19:35.560Z,24.60
2018-05-04T22:22:04.297Z,24.55
2018-05-04T22:24:32.832Z,24.60
2018-05-04T22:27:01.542Z,24.90
2018-05-04T22:29:30.207Z,23.20
2018-05-04T22:31:59.501Z,23.13
2018-05-04T22:34:28.710Z,25.13
2018-05-04T22:36:57.472Z,25.07
2018-05-04T22:39:26.216Z,23.20
2018-05-04T22:41:54.665Z,24.17
2018-05-04T22:44:23.393Z,23.98
2018-05-04T22:46:51.827Z,22.53
2018-05-04T22:49:20.647Z,23.90
2018-05-04T22:51:50.140Z,26.53
2018-05-04T22:54:18.717Z,23.17
2018-05-04T22:56:48.220Z,22.87
2018-05-04T22:59:16.675Z,22.50
2018-05-04T23:01:45.888Z,21.60
2018-05-04T23:04:15.130Z,22.57
2018-05-04T23:06:43.332Z,22.97
2018-05-04T23:09:12.183Z,21.48
2018-05-04T23:11:40.965Z,20.62
2018-05-04T23:14:10.453Z,19.00
2018-05-04T23:16:38.909Z,18.50
2018-05-04T23:19:08.117Z,16.23
2018-05-04T23:21:36.833Z,16.92
2018-05-04T23:24:05.309Z,15.80
2018-05-04T23:26:33.770Z,16.33
2018-05-04T23:29:02.370Z,15.23
2018-05-04T23:31:30.841Z,14.60
2018-05-04T23:33:59.321Z,14.80
2018-05-04T23:36:27.789Z,13.30
2018-05-04T23:38:56.986Z,12.17
2018-05-04T23:41:25.709Z,13.18
2018-05-04T23:43:54.169Z,12.27
2018-05-04T23:46:22.801Z,11.63
2018-05-04T23:48:51.261Z,12.10
2018-05-04T23:51:20.605Z,11.15
2018-05-04T23:53:50.127Z,11.10
2018-05-04T23:56:18.643Z,10.50
2018-05-04T23:58:46.877Z,10.87
